createdAt,value
2018-10-12T00:01:15.478Z,67.22
2018-10-12T00:03:44.823Z,66.85
2018-10-12T00:06:14.416Z,67.31
2018-10-12T00:08:43.679Z,65.84
2018-10-12T00:11:13.025Z,65.74
2018-10-12T00:13:42.347Z,66.80
2018-10-12T00:16:11.632Z,66.20
2018-10-12T00:18:40.947Z,65.25
2018-10-12T00:21:10.414Z,66.88
2018-10-12T00:23:39.869Z,65.82
2018-10-12T00:26:09.408Z,66.45
2018-10-12T00:28:39.448Z,67.10
2018-10-12T00:31:08.765Z,68.58
2018-10-12T00:33:38.071Z,66.97
2018-10-12T00:36:07.566Z,67.56
2018-10-12T00:38:36.973Z,67.38
2018-10-12T00:41:06.326Z,67.30
2018-10-12T00:43:35.564Z,68.54
2018-10-12T00:46:04.888Z,66.95
2018-10-12T00:48:34.158Z,66.75
2018-10-12T00:51:03.397Z,66.72
2018-10-12T00:53:32.618Z,67.24
2018-10-12T00:56:01.902Z,66.27
2018-10-12T00:58:31.392Z,67.83
2018-10-12T01:01:00.569Z,66.71
2018-10-12T01:03:29.932Z,70.82
2018-10-12T01:05:59.481Z,68.41
2018-10-12T01:08:28.798Z,66.97
2018-10-12T01:10:58.286Z,66.35
2018-10-12T01:13:27.614Z,67.26
2018-10-12T01:15:56.997Z,69.69
2018-10-12T01:18:26.319Z,66.88
2018-10-12T01:20:55.710Z,66.04
2018-10-12T01:23:25.126Z,67.62
2018-10-12T01:25:54.483Z,68.00
2018-10-12T01:28:24.493Z,68.37
2018-10-12T01:30:53.914Z,67.51
2018-10-12T01:33:23.320Z,67.40
2018-10-12T01:35:52.702Z,66.86
2018-10-12T01:38:22.050Z,66.49
2018-10-12T01:40:51.476Z,66.91
2018-10-12T01:43:20.915Z,67.39
2018-10-12T01:45:50.253Z,67.21
2018-10-12T01:48:20.285Z,68.18
2018-10-12T01:50:49.725Z,67.08
2018-10-12T01:53:20.320Z,70.40
2018-10-12T01:55:50.758Z,69.98
2018-10-12T01:58:24.275Z,68.57
2018-10-12T02:00:54.228Z,69.74
2018-10-12T02:03:23.512Z,68.73
2018-10-12T02:05:52.889Z,72.10
2018-10-12T02:08:23.233Z,71.23
2018-10-12T02:10:52.684Z,72.55
2018-10-12T02:13:21.993Z,69.96
2018-10-12T02:15:51.453Z,71.87
2018-10-12T02:18:21.424Z,75.47
2018-10-12T02:20:51.033Z,71.85
2018-10-12T02:23:20.742Z,71.93
2018-10-12T02:25:50.241Z,71.24
2018-10-12T02:31:32.605Z,72.07
2018-10-12T02:34:02.103Z,70.91
2018-10-12T02:36:32.342Z,70.47
2018-10-12T02:39:02.196Z,70.20
2018-10-12T02:41:32.744Z,69.75
2018-10-12T02:44:02.251Z,73.22
2018-10-12T02:46:31.891Z,73.14
2018-10-12T02:49:01.347Z,71.60
2018-10-12T02:51:31.023Z,72.13
2018-10-12T02:54:00.966Z,72.28
2018-10-12T02:56:30.352Z,71.15
2018-10-12T02:58:59.693Z,74.00
2018-10-12T03:01:29.252Z,70.72
2018-10-12T03:03:58.946Z,76.87
2018-10-12T03:06:28.560Z,73.54
2018-10-12T03:08:58.058Z,72.15
2018-10-12T03:11:28.165Z,76.69
2018-10-12T03:13:57.554Z,73.80
2018-10-12T03:16:26.985Z,74.68
2018-10-12T03:18:56.560Z,72.47
2018-10-12T03:21:26.293Z,72.96
2018-10-12T03:23:56.058Z,74.59
2018-10-12T03:26:25.736Z,73.62
2018-10-12T03:28:55.643Z,73.67
2018-10-12T03:31:25.428Z,75.56
2018-10-12T03:33:55.262Z,76.13
2018-10-12T03:36:25.690Z,75.00
2018-10-12T03:38:55.209Z,74.89
2018-10-12T03:41:25.730Z,73.35
2018-10-12T03:43:55.133Z,75.41
2018-10-12T03:46:24.473Z,72.80
2018-10-12T03:48:53.916Z,74.13
2018-10-12T03:51:23.243Z,75.58
2018-10-12T03:53:52.515Z,73.64
2018-10-12T03:56:21.841Z,71.78
2018-10-12T03:58:51.228Z,74.32
2018-10-12T04:01:20.702Z,75.52
2018-10-12T04:03:50.047Z,72.40
2018-10-12T04:06:19.474Z,73.55
2018-10-12T04:08:49.479Z,74.64
2018-10-12T04:11:19.056Z,74.80
2018-10-12T04:13:48.684Z,74.78
2018-10-12T04:16:18.624Z,75.97
2018-10-12T04:18:48.287Z,73.75
2018-10-12T04:21:23.171Z,75.70
2018-10-12T04:23:52.670Z,76.50
2018-10-12T04:26:22.568Z,74.56
2018-10-12T04:28:52.220Z,75.86
2018-10-12T04:31:25.072Z,76.17
2018-10-12T04:33:55.244Z,77.87
2018-10-12T04:36:24.969Z,74.85
2018-10-12T04:39:05.900Z,75.99
2018-10-12T04:41:39.787Z,75.18
2018-10-12T04:44:09.455Z,76.14
2018-10-12T04:46:43.509Z,76.22
2018-10-12T04:49:14.775Z,77.23
2018-10-12T04:51:48.059Z,75.75
2018-10-12T04:54:17.503Z,77.72
2018-10-12T04:56:47.358Z,78.27
2018-10-12T04:59:16.580Z,76.40
2018-10-12T05:01:46.744Z,75.93
2018-10-12T05:04:15.961Z,79.10
2018-10-12T05:06:45.219Z,77.67
2018-10-12T05:09:15.299Z,77.02
2018-10-12T05:11:50.041Z,75.91
2018-10-12T05:14:20.710Z,75.23
2018-10-12T05:16:50.497Z,75.47
2018-10-12T05:19:20.732Z,74.77
2018-10-12T05:21:56.912Z,75.83
2018-10-12T05:24:26.988Z,75.54
2018-10-12T05:26:57.101Z,74.35
2018-10-12T05:29:27.024Z,75.59
2018-10-12T05:31:57.992Z,76.17
2018-10-12T05:34:28.215Z,76.46
2018-10-12T05:36:57.473Z,77.31
2018-10-12T05:39:26.816Z,75.41
2018-10-12T05:41:56.068Z,75.02
2018-10-12T05:44:25.351Z,75.73
2018-10-12T05:46:54.648Z,74.06
2018-10-12T05:49:35.186Z,73.87
2018-10-12T05:52:05.590Z,74.65
2018-10-12T05:54:34.981Z,74.51
2018-10-12T05:57:04.338Z,75.17
2018-10-12T05:59:33.744Z,73.77
2018-10-12T06:02:04.268Z,75.30
2018-10-12T06:04:33.919Z,74.15
2018-10-12T06:07:04.380Z,74.74
2018-10-12T06:09:33.833Z,74.52
2018-10-12T06:12:03.066Z,76.58
2018-10-12T06:14:32.423Z,73.94
2018-10-12T06:17:01.675Z,73.86
2018-10-12T06:19:32.860Z,72.38
2018-10-12T06:22:03.011Z,76.95
2018-10-12T06:24:32.543Z,74.83
2018-10-12T06:27:02.048Z,76.62
2018-10-12T06:29:31.689Z,73.56
2018-10-12T06:32:02.064Z,77.71
2018-10-12T06:34:33.302Z,74.24
2018-10-12T06:37:03.798Z,75.69
2018-10-12T06:39:34.372Z,79.75
2018-10-12T06:42:06.765Z,80.40
2018-10-12T06:44:38.057Z,80.05
2018-10-12T06:47:08.440Z,74.71
2018-10-12T06:49:39.129Z,74.79
2018-10-12T06:52:12.186Z,79.47
2018-10-12T06:54:43.513Z,78.40
2018-10-12T06:57:13.861Z,78.09
2018-10-12T06:59:43.822Z,78.07
2018-10-12T07:02:19.550Z,79.63
2018-10-12T07:04:51.272Z,77.26
2018-10-12T07:07:21.298Z,80.56
2018-10-12T07:09:52.628Z,79.91
2018-10-12T07:12:25.388Z,79.25
2018-10-12T07:14:56.581Z,79.00
2018-10-12T07:17:27.400Z,78.83
2018-10-12T07:19:57.534Z,78.74
2018-10-12T07:22:28.402Z,77.38
2018-10-12T07:24:59.756Z,77.63
2018-10-12T07:27:31.036Z,78.96
2018-10-12T07:30:02.235Z,79.29
2018-10-12T07:32:32.503Z,79.53
2018-10-12T07:35:02.864Z,76.49
2018-10-12T07:37:33.322Z,79.60
2018-10-12T07:40:03.972Z,78.18
2018-10-12T07:42:35.524Z,78.98
2018-10-12T07:45:08.156Z,79.57
2018-10-12T07:47:46.687Z,80.85
2018-10-12T07:50:17.160Z,78.28
2018-10-12T07:52:50.908Z,79.28
2018-10-12T07:55:22.439Z,77.94
2018-10-12T07:57:53.217Z,79.14
2018-10-12T08:00:23.234Z,78.28
2018-10-12T08:02:55.528Z,78.34
2018-10-12T08:05:25.667Z,78.27
2018-10-12T08:07:56.235Z,79.67
2018-10-12T08:10:27.266Z,78.62
2018-10-12T08:12:59.988Z,77.93
2018-10-12T08:15:29.631Z,77.18
2018-10-12T08:17:59.304Z,78.92
2018-10-12T08:20:31.222Z,77.39
2018-10-12T08:23:06.539Z,77.89
2018-10-12T08:25:36.667Z,77.36
2018-10-12T08:28:06.631Z,76.56
2018-10-12T08:30:36.057Z,76.20
2018-10-12T08:33:06.592Z,76.97
2018-10-12T08:35:35.993Z,76.34
2018-10-12T08:38:05.380Z,75.44
2018-10-12T08:40:34.618Z,77.99
2018-10-12T08:43:03.978Z,76.51
2018-10-12T08:45:33.388Z,76.46
2018-10-12T08:48:02.677Z,75.81
2018-10-12T08:50:32.945Z,75.98
2018-10-12T08:53:02.245Z,77.30
2018-10-12T08:55:31.553Z,76.40
2018-10-12T08:58:00.783Z,75.82
2018-10-12T09:00:30.158Z,75.78
2018-10-12T09:02:59.430Z,75.25
2018-10-12T09:05:28.665Z,75.51
2018-10-12T09:07:57.931Z,74.75
2018-10-12T09:10:27.211Z,74.96
2018-10-12T09:12:56.516Z,74.34
2018-10-12T09:15:25.764Z,74.92
2018-10-12T09:17:55.066Z,74.49
2018-10-12T09:20:24.602Z,73.36
2018-10-12T09:22:54.051Z,73.19
2018-10-12T09:25:23.314Z,72.17
2018-10-12T09:27:52.590Z,71.75
2018-10-12T09:30:21.873Z,71.52
2018-10-12T09:32:51.106Z,70.88
2018-10-12T09:35:20.430Z,69.66
2018-10-12T09:37:49.672Z,69.55
2018-10-12T09:40:18.887Z,68.94
2018-10-12T09:42:48.664Z,68.15
2018-10-12T09:45:17.890Z,67.11
2018-10-12T09:47:47.129Z,67.96
2018-10-12T09:50:16.430Z,66.99
2018-10-12T09:52:45.735Z,67.58
2018-10-12T09:55:15.034Z,66.47
2018-10-12T09:57:44.609Z,66.63
2018-10-12T10:00:19.184Z,67.32
2018-10-12T10:02:54.543Z,65.82
2018-10-12T10:05:23.839Z,66.48
2018-10-12T10:07:53.173Z,66.15
2018-10-12T10:10:22.409Z,64.06
2018-10-12T10:12:52.716Z,64.03
2018-10-12T10:15:22.046Z,63.68
2018-10-12T10:17:51.293Z,65.13
2018-10-12T10:20:20.719Z,63.48
2018-10-12T10:22:49.987Z,64.04
2018-10-12T10:25:19.389Z,65.20
2018-10-12T10:27:48.684Z,64.66
2018-10-12T10:30:18.091Z,64.74
2018-10-12T10:32:47.532Z,65.20
2018-10-12T10:35:17.911Z,65.64
2018-10-12T10:37:47.274Z,64.98
2018-10-12T10:40:16.924Z,64.54
2018-10-12T10:42:46.195Z,64.42
2018-10-12T10:45:15.951Z,63.37
2018-10-12T10:47:45.186Z,64.67
2018-10-12T10:50:14.459Z,64.43
2018-10-12T10:52:44.155Z,64.40
2018-10-12T10:55:14.408Z,64.32
2018-10-12T10:57:43.971Z,63.45
2018-10-12T11:00:13.230Z,64.33
2018-10-12T11:02:42.486Z,64.37
2018-10-12T11:05:11.675Z,64.13
2018-10-12T11:07:40.930Z,63.83
2018-10-12T11:10:10.146Z,64.01
2018-10-12T11:12:39.463Z,62.72
2018-10-12T11:15:08.703Z,63.57
2018-10-12T11:17:37.997Z,63.61
2018-10-12T11:20:07.350Z,62.86
2018-10-12T11:22:36.654Z,61.49
2018-10-12T11:25:05.923Z,63.49
2018-10-12T11:27:35.160Z,62.50
2018-10-12T11:30:04.529Z,62.61
2018-10-12T11:32:33.779Z,62.64
2018-10-12T11:35:04.679Z,61.86
2018-10-12T11:37:33.911Z,61.99
2018-10-12T11:40:03.160Z,62.28
2018-10-12T11:43:40.232Z,61.91
2018-10-12T11:46:09.433Z,60.38
2018-10-12T11:48:38.707Z,59.79
2018-10-12T11:51:08.074Z,58.59
2018-10-12T11:53:37.322Z,58.11
2018-10-12T11:56:06.639Z,58.24
2018-10-12T11:58:35.836Z,57.29
2018-10-12T12:01:05.133Z,58.48
2018-10-12T12:03:34.349Z,58.22
2018-10-12T12:06:03.571Z,56.94
2018-10-12T12:08:32.794Z,55.87
2018-10-12T12:11:02.027Z,57.19
2018-10-12T12:13:31.267Z,56.91
2018-10-12T12:16:00.521Z,53.46
2018-10-12T12:18:29.741Z,56.83
2018-10-12T12:20:58.954Z,56.81
2018-10-12T12:23:28.177Z,56.48
2018-10-12T12:25:57.390Z,55.01
2018-10-12T12:28:26.705Z,54.15
2018-10-12T12:30:55.945Z,55.07
2018-10-12T12:33:25.203Z,52.73
2018-10-12T12:35:55.142Z,52.13
2018-10-12T12:38:24.080Z,53.07
2018-10-12T12:40:53.422Z,51.90
2018-10-12T12:43:22.725Z,53.44
2018-10-12T12:45:52.167Z,50.84
2018-10-12T12:48:21.645Z,50.80
2018-10-12T12:50:50.659Z,50.54
2018-10-12T12:53:20.072Z,52.47
2018-10-12T12:55:49.307Z,51.18
2018-10-12T12:58:18.611Z,50.98
2018-10-12T13:00:48.231Z,52.68
2018-10-12T13:03:17.829Z,52.18
2018-10-12T13:05:47.733Z,53.68
2018-10-12T13:08:17.131Z,52.87
2018-10-12T13:10:46.492Z,50.34
2018-10-12T13:13:15.771Z,51.78
2018-10-12T13:15:45.094Z,52.86
2018-10-12T13:18:14.595Z,51.86
2018-10-12T13:20:43.946Z,52.04
2018-10-12T13:23:13.316Z,52.05
2018-10-12T13:25:42.719Z,50.59
2018-10-12T13:28:12.130Z,50.33
2018-10-12T13:30:42.223Z,51.20
2018-10-12T13:33:11.523Z,47.59
2018-10-12T13:35:40.847Z,50.73
2018-10-12T13:38:10.069Z,48.65
2018-10-12T13:40:39.359Z,51.11
2018-10-12T13:43:08.639Z,49.58
2018-10-12T13:45:37.847Z,50.32
2018-10-12T13:48:07.318Z,50.65
2018-10-12T13:50:36.965Z,50.86
2018-10-12T13:53:07.041Z,49.78
2018-10-12T13:55:36.446Z,49.98
2018-10-12T13:58:05.751Z,50.32
2018-10-12T14:00:35.749Z,49.30
2018-10-12T14:03:06.101Z,48.41
2018-10-12T14:05:35.334Z,48.75
2018-10-12T14:08:04.833Z,49.89
2018-10-12T14:10:34.113Z,48.52
2018-10-12T14:13:03.520Z,50.70
2018-10-12T14:15:32.814Z,50.10
2018-10-12T14:18:02.183Z,49.36
2018-10-12T14:20:31.554Z,50.22
2018-10-12T14:23:00.855Z,49.48
2018-10-12T14:25:30.120Z,46.53
2018-10-12T14:27:59.491Z,48.91
2018-10-12T14:30:28.855Z,48.56
2018-10-12T14:32:58.241Z,49.10
2018-10-12T14:35:30.631Z,49.17
2018-10-12T14:38:00.373Z,48.48
2018-10-12T14:40:30.416Z,49.71
2018-10-12T14:43:01.811Z,49.29
2018-10-12T14:45:32.672Z,49.58
2018-10-12T14:48:03.291Z,49.68
2018-10-12T14:50:33.052Z,50.15
2018-10-12T14:53:04.165Z,49.33
2018-10-12T14:55:34.166Z,50.38
2018-10-12T14:58:04.212Z,50.29
2018-10-12T15:00:34.807Z,50.88
2018-10-12T15:03:05.500Z,50.80
2018-10-12T15:05:35.555Z,50.63
2018-10-12T15:08:05.922Z,50.11
2018-10-12T15:10:35.982Z,50.74
2018-10-12T15:13:06.924Z,50.17
2018-10-12T15:15:36.412Z,50.61
2018-10-12T15:18:06.283Z,49.87
2018-10-12T15:20:36.475Z,50.87
2018-10-12T15:23:07.223Z,50.48
2018-10-12T15:25:37.959Z,50.67
2018-10-12T15:28:08.006Z,51.04
2018-10-12T15:30:38.198Z,51.15
2018-10-12T15:33:09.896Z,52.03
2018-10-12T15:35:40.662Z,51.78
2018-10-12T15:38:11.349Z,51.26
2018-10-12T15:40:41.743Z,52.45
2018-10-12T15:43:12.304Z,52.17
2018-10-12T15:45:42.781Z,52.76
2018-10-12T15:48:13.322Z,53.08
2018-10-12T15:50:43.993Z,53.06
2018-10-12T15:53:14.571Z,52.58
2018-10-12T15:55:45.038Z,52.98
2018-10-12T15:58:14.622Z,52.44
2018-10-12T16:00:45.467Z,53.18
2018-10-12T16:03:15.493Z,53.29
2018-10-12T16:05:45.390Z,53.30
2018-10-12T16:08:15.865Z,53.19
2018-10-12T16:10:47.024Z,53.92
2018-10-12T16:13:19.104Z,53.16
2018-10-12T16:15:49.131Z,53.69
2018-10-12T16:18:20.039Z,53.76
2018-10-12T16:20:50.603Z,53.79
2018-10-12T16:23:21.329Z,54.36
2018-10-12T16:26:03.509Z,54.26
2018-10-12T16:28:34.211Z,54.32
2018-10-12T16:31:04.658Z,54.32
2018-10-12T16:33:36.491Z,53.78
2018-10-12T16:36:07.124Z,53.92
2018-10-12T16:38:37.674Z,55.57
2018-10-12T16:41:07.224Z,55.26
2018-10-12T16:43:38.178Z,55.03
2018-10-12T16:46:07.763Z,55.77
2018-10-12T16:48:37.454Z,54.76
2018-10-12T16:51:07.105Z,56.44
2018-10-12T16:53:36.796Z,56.37
2018-10-12T16:56:06.883Z,56.45
2018-10-12T16:58:37.475Z,56.34
2018-10-12T17:01:07.991Z,56.08
2018-10-12T17:03:40.290Z,56.47
2018-10-12T17:06:09.760Z,56.63
2018-10-12T17:08:39.133Z,56.20
2018-10-12T17:11:08.465Z,57.21
2018-10-12T17:13:38.357Z,58.39
2018-10-12T17:16:07.880Z,56.66
2018-10-12T17:18:37.204Z,58.33
2018-10-12T17:21:06.523Z,58.09
2018-10-12T17:23:35.875Z,58.39
2018-10-12T17:26:05.161Z,56.94
2018-10-12T17:28:34.412Z,59.46
2018-10-12T17:31:03.887Z,56.98
2018-10-12T17:33:33.118Z,58.17
2018-10-12T17:36:02.384Z,58.27
2018-10-12T17:38:31.639Z,58.75
2018-10-12T17:41:19.747Z,58.42
2018-10-12T17:43:51.853Z,58.26
2018-10-12T17:46:21.198Z,58.14
2018-10-12T17:48:50.860Z,58.68
2018-10-12T17:51:20.611Z,59.01
2018-10-12T17:53:50.606Z,59.30
2018-10-12T17:56:20.012Z,59.98
2018-10-12T17:58:49.536Z,59.97
2018-10-12T18:01:19.757Z,60.04
2018-10-12T18:03:50.187Z,59.80
2018-10-12T18:06:19.590Z,60.04
2018-10-12T18:08:49.168Z,60.11
2018-10-12T18:11:18.575Z,61.24
2018-10-12T18:13:48.006Z,59.63
2018-10-12T18:16:17.299Z,60.51
2018-10-12T18:18:46.648Z,62.01
2018-10-12T18:21:16.179Z,60.50
2018-10-12T18:23:46.117Z,60.68
2018-10-12T18:26:15.526Z,61.39
2018-10-12T18:28:45.323Z,60.57
2018-10-12T18:31:14.646Z,61.37
2018-10-12T18:33:43.988Z,61.79
2018-10-12T18:36:13.386Z,61.86
2018-10-12T18:38:42.755Z,61.64
2018-10-12T18:41:12.267Z,62.50
2018-10-12T18:43:41.655Z,62.08
2018-10-12T18:46:11.007Z,61.53
2018-10-12T18:48:40.454Z,63.13
2018-10-12T18:51:09.823Z,61.86
2018-10-12T18:53:39.977Z,61.92
2018-10-12T18:56:09.220Z,62.19
2018-10-12T18:58:39.027Z,63.77
2018-10-12T19:01:08.617Z,63.38
2018-10-12T19:03:38.055Z,63.00
2018-10-12T19:06:07.415Z,63.71
2018-10-12T19:08:37.095Z,63.55
2018-10-12T19:11:06.697Z,64.28
2018-10-12T19:13:37.099Z,63.45
2018-10-12T19:16:06.587Z,62.94
2018-10-12T19:18:35.989Z,63.20
2018-10-12T19:21:05.333Z,63.26
2018-10-12T19:23:41.346Z,63.42
2018-10-12T19:26:11.095Z,62.78
2018-10-12T19:28:40.334Z,64.28
2018-10-12T19:31:09.686Z,63.63
2018-10-12T19:33:39.178Z,65.32
2018-10-12T19:36:08.490Z,65.27
2018-10-12T19:38:37.796Z,63.86
2018-10-12T19:41:07.082Z,62.55
2018-10-12T19:43:36.347Z,63.94
2018-10-12T19:46:05.686Z,64.13
2018-10-12T19:48:34.927Z,64.73
2018-10-12T19:51:04.270Z,65.32
2018-10-12T19:53:33.537Z,63.49
2018-10-12T19:56:02.874Z,64.32
2018-10-12T19:58:32.159Z,64.37
2018-10-12T20:01:01.461Z,63.65
2018-10-12T20:03:30.764Z,63.41
2018-10-12T20:06:00.073Z,65.63
2018-10-12T20:08:29.352Z,64.14
2018-10-12T20:10:58.720Z,63.66
2018-10-12T20:13:28.346Z,64.92
2018-10-12T20:15:57.603Z,63.33
2018-10-12T20:18:27.113Z,65.24
2018-10-12T20:20:56.478Z,63.80
2018-10-12T20:23:25.870Z,65.94
2018-10-12T20:25:55.254Z,66.29
2018-10-12T20:28:24.752Z,65.94
2018-10-12T20:30:54.104Z,64.70
2018-10-12T20:33:23.542Z,64.97
2018-10-12T20:35:52.872Z,65.19
2018-10-12T20:38:22.149Z,64.47
2018-10-12T20:40:51.490Z,64.91
2018-10-12T20:43:20.894Z,64.55
2018-10-12T20:45:50.321Z,65.14
2018-10-12T20:48:19.639Z,66.82
2018-10-12T20:50:49.373Z,66.09
2018-10-12T20:53:18.595Z,65.68
2018-10-12T20:55:49.761Z,65.79
2018-10-12T20:58:19.178Z,64.96
2018-10-12T21:00:48.458Z,66.17
2018-10-12T21:03:18.366Z,66.07
2018-10-12T21:05:47.705Z,66.87
2018-10-12T21:08:16.991Z,65.37
2018-10-12T21:10:46.254Z,65.37
2018-10-12T21:13:15.514Z,66.12
2018-10-12T21:15:45.709Z,65.09
2018-10-12T21:18:14.967Z,65.10
2018-10-12T21:20:44.219Z,65.57
2018-10-12T21:23:13.421Z,66.45
2018-10-12T21:25:42.655Z,64.94
2018-10-12T21:28:11.946Z,64.96
2018-10-12T21:30:41.162Z,65.48
2018-10-12T21:33:10.370Z,66.65
2018-10-12T21:35:39.648Z,67.20
2018-10-12T21:38:08.939Z,66.95
2018-10-12T21:40:38.282Z,66.42
2018-10-12T21:43:07.726Z,66.18
2018-10-12T21:45:36.950Z,66.30
2018-10-12T21:48:06.220Z,64.99
2018-10-12T21:50:35.513Z,66.57
2018-10-12T21:53:05.027Z,67.31
2018-10-12T21:55:35.611Z,65.75
2018-10-12T21:58:04.933Z,66.49
2018-10-12T22:00:34.254Z,66.25
2018-10-12T22:03:03.546Z,66.54
2018-10-12T22:05:33.461Z,67.88
2018-10-12T22:08:02.732Z,66.47
2018-10-12T22:10:32.043Z,67.54
2018-10-12T22:13:01.334Z,66.33
2018-10-12T22:15:30.639Z,67.03
2018-10-12T22:17:59.941Z,66.96
2018-10-12T22:20:29.185Z,65.48
2018-10-12T22:22:58.450Z,66.28
2018-10-12T22:25:27.750Z,67.06
2018-10-12T22:27:56.980Z,67.64
2018-10-12T22:30:26.231Z,67.74
2018-10-12T22:32:55.527Z,67.45
2018-10-12T22:35:24.847Z,66.90
2018-10-12T22:37:54.077Z,67.30
2018-10-12T22:40:23.379Z,67.95
2018-10-12T22:42:54.866Z,67.11
2018-10-12T22:45:25.178Z,66.92
2018-10-12T22:47:54.411Z,68.68
2018-10-12T22:50:23.691Z,68.67
2018-10-12T22:52:52.965Z,69.03
2018-10-12T22:55:22.246Z,67.66
2018-10-12T22:57:55.628Z,67.17
2018-10-12T23:00:24.940Z,67.50
2018-10-12T23:02:54.219Z,68.04
2018-10-12T23:05:24.377Z,68.02
2018-10-12T23:07:53.667Z,67.23
2018-10-12T23:10:23.579Z,68.08
2018-10-12T23:12:53.038Z,68.14
2018-10-12T23:15:22.581Z,67.02
2018-10-12T23:17:51.954Z,68.22
2018-10-12T23:20:21.299Z,67.05
2018-10-12T23:22:50.572Z,67.69
2018-10-12T23:25:19.873Z,67.63
2018-10-12T23:27:49.258Z,68.25
2018-10-12T23:30:18.601Z,69.96
2018-10-12T23:32:47.944Z,69.36
2018-10-12T23:35:17.252Z,67.91
2018-10-12T23:37:46.501Z,69.78
2018-10-12T23:40:15.836Z,68.03
2018-10-12T23:42:45.157Z,70.03
2018-10-12T23:45:14.578Z,67.60
2018-10-12T23:47:49.434Z,68.34
2018-10-12T23:50:18.775Z,68.31
2018-10-12T23:52:48.083Z,68.94
2018-10-12T23:55:17.607Z,68.98
2018-10-12T23:57:46.924Z,70.75
